createdAt,value
2023-02-19T00:00:04.779Z,31.15
2023-02-19T00:02:42.683Z,29.42
2023-02-19T00:05:12.635Z,36.33
2023-02-19T00:07:41.079Z,34.90
2023-02-19T00:10:09.806Z,26.95
2023-02-19T00:12:38.157Z,26.75
2023-02-19T00:15:07.137Z,37.78
2023-02-19T00:17:35.470Z,32.75
2023-02-19T00:20:03.889Z,30.45
2023-02-19T00:22:33.628Z,29.67
2023-02-19T00:25:02.007Z,34.30
2023-02-19T00:27:30.310Z,28.77
2023-02-19T00:29:58.693Z,29.30
2023-02-19T00:32:27.085Z,31.83
2023-02-19T00:34:55.455Z,26.77
2023-02-19T00:37:23.785Z,26.67
2023-02-19T00:39:53.507Z,27.13
2023-02-19T00:42:21.925Z,24.87
2023-02-19T00:44:50.371Z,30.33
2023-02-19T00:47:21.634Z,27.52
2023-02-19T00:49:50.123Z,29.15
2023-02-19T00:52:18.499Z,28.48
2023-02-19T00:54:46.865Z,19.15
2023-02-19T00:57:16.597Z,23.40
2023-02-19T00:59:45.254Z,24.63
2023-02-19T01:02:13.690Z,23.27
2023-02-19T01:04:42.070Z,23.88
2023-02-19T01:07:10.912Z,22.10
2023-02-19T01:09:39.286Z,23.08
2023-02-19T01:12:08.302Z,30.90
2023-02-19T01:14:37.983Z,25.00
2023-02-19T01:17:06.261Z,43.67
2023-02-19T01:19:34.601Z,24.38
2023-02-19T01:22:03.007Z,25.38
2023-02-19T01:24:31.725Z,27.30
2023-02-19T01:27:00.121Z,26.25
2023-02-19T01:29:28.501Z,29.00
2023-02-19T01:31:58.511Z,28.63
2023-02-19T01:34:27.240Z,24.90
2023-02-19T01:36:55.557Z,30.90
2023-02-19T01:39:23.921Z,24.13
2023-02-19T01:41:52.201Z,29.90
2023-02-19T01:45:14.342Z,21.50
2023-02-19T01:47:44.203Z,23.33
2023-02-19T01:50:12.742Z,21.50
2023-02-19T01:52:41.216Z,27.73
2023-02-19T01:55:13.500Z,24.48
2023-02-19T01:57:47.394Z,22.38
2023-02-19T02:00:18.666Z,32.38
2023-02-19T02:02:53.261Z,28.52
2023-02-19T02:05:35.834Z,26.80
2023-02-19T02:08:22.742Z,22.83
2023-02-19T02:10:52.309Z,26.00
2023-02-19T02:13:21.106Z,27.42
2023-02-19T02:16:01.400Z,26.63
2023-02-19T02:18:44.992Z,24.27
2023-02-19T02:21:44.546Z,30.95
2023-02-19T02:24:45.533Z,24.10
2023-02-19T02:27:41.781Z,22.60
2023-02-19T02:30:36.091Z,23.33
2023-02-19T02:33:16.035Z,27.05
2023-02-19T02:35:49.425Z,27.42
2023-02-19T02:38:22.808Z,26.45
2023-02-19T02:40:51.747Z,26.13
2023-02-19T02:43:20.385Z,37.08
2023-02-19T02:45:50.313Z,25.08
2023-02-19T02:48:37.190Z,29.70
2023-02-19T02:51:15.554Z,23.45
2023-02-19T02:54:18.661Z,26.45
2023-02-19T02:56:49.629Z,25.15
2023-02-19T02:59:23.575Z,27.63
2023-02-19T03:02:14.119Z,21.77
2023-02-19T03:05:09.506Z,19.52
2023-02-19T03:07:42.465Z,18.90
2023-02-19T03:10:18.338Z,23.02
2023-02-19T03:13:04.956Z,35.17
2023-02-19T03:15:56.712Z,24.23
2023-02-19T03:18:47.006Z,24.52
2023-02-19T03:21:18.558Z,26.50
2023-02-19T03:24:05.351Z,27.33
2023-02-19T03:26:36.513Z,21.58
2023-02-19T03:29:25.412Z,24.42
2023-02-19T03:32:04.005Z,26.75
2023-02-19T03:34:39.156Z,23.00
2023-02-19T03:37:14.391Z,24.98
2023-02-19T03:39:45.337Z,26.05
2023-02-19T03:42:24.927Z,32.40
2023-02-19T03:45:12.356Z,30.00
2023-02-19T03:47:49.861Z,26.00
2023-02-19T03:50:25.643Z,26.98
2023-02-19T03:53:06.207Z,27.23
2023-02-19T03:55:42.615Z,30.65
2023-02-19T03:58:16.112Z,40.50
2023-02-19T04:00:52.423Z,37.17
2023-02-19T04:03:27.794Z,30.20
2023-02-19T04:06:03.761Z,28.80
2023-02-19T04:08:36.213Z,31.63
2023-02-19T04:11:07.866Z,34.30
2023-02-19T04:13:44.748Z,31.67
2023-02-19T04:16:21.148Z,32.53
2023-02-19T04:18:53.322Z,33.63
2023-02-19T04:21:24.496Z,35.55
2023-02-19T04:23:53.263Z,27.88
2023-02-19T04:26:23.920Z,27.80
2023-02-19T04:28:52.207Z,28.92
2023-02-19T04:31:20.561Z,31.98
2023-02-19T04:33:49.063Z,23.42
2023-02-19T04:36:17.357Z,23.83
2023-02-19T04:38:47.035Z,37.40
2023-02-19T04:41:15.413Z,25.45
2023-02-19T04:43:43.674Z,27.10
2023-02-19T04:46:12.053Z,30.25
2023-02-19T04:48:40.344Z,30.75
2023-02-19T04:51:09.585Z,29.60
2023-02-19T04:53:38.414Z,38.63
2023-02-19T04:56:09.684Z,24.73
2023-02-19T04:58:38.326Z,27.17
2023-02-19T05:01:07.578Z,28.08
2023-02-19T05:03:36.227Z,33.13
2023-02-19T05:06:05.555Z,26.30
2023-02-19T05:08:34.210Z,28.70
2023-02-19T05:11:04.554Z,30.75
2023-02-19T05:13:35.110Z,24.35
2023-02-19T05:18:35.381Z,31.55
2023-02-19T05:21:03.907Z,31.08
2023-02-19T05:23:32.226Z,32.30
2023-02-19T05:26:00.620Z,28.17
2023-02-19T05:28:29.628Z,28.20
2023-02-19T05:30:59.476Z,30.55
2023-02-19T05:33:27.926Z,31.52
2023-02-19T05:35:57.073Z,38.33
2023-02-19T05:38:25.797Z,30.77
2023-02-19T05:40:54.085Z,30.58
2023-02-19T05:43:22.424Z,27.75
2023-02-19T05:45:50.675Z,29.80
2023-02-19T05:48:20.357Z,27.15
2023-02-19T05:50:48.636Z,25.40
2023-02-19T05:53:16.951Z,27.48
2023-02-19T05:55:45.318Z,27.02
2023-02-19T05:58:13.634Z,27.65
2023-02-19T06:00:41.981Z,25.67
2023-02-19T06:03:10.341Z,25.13
2023-02-19T06:05:40.321Z,31.67
2023-02-19T06:08:08.809Z,22.98
2023-02-19T06:10:38.437Z,29.90
2023-02-19T06:13:06.810Z,27.45
2023-02-19T06:15:35.186Z,30.80
2023-02-19T06:18:04.400Z,21.45
2023-02-19T06:20:32.981Z,27.23
2023-02-19T06:23:02.761Z,32.65
2023-02-19T06:25:31.153Z,25.47
2023-02-19T06:27:59.524Z,35.53
2023-02-19T06:30:27.832Z,26.23
2023-02-19T06:32:56.215Z,27.73
2023-02-19T06:35:24.586Z,25.63
2023-02-19T06:37:52.961Z,25.90
2023-02-19T06:40:22.754Z,28.55
2023-02-19T06:42:51.083Z,27.92
2023-02-19T06:45:19.468Z,29.65
2023-02-19T06:47:48.019Z,33.47
2023-02-19T06:50:16.953Z,29.83
2023-02-19T06:52:45.590Z,28.67
2023-02-19T06:55:14.169Z,24.02
2023-02-19T06:57:44.185Z,27.85
2023-02-19T07:00:13.628Z,24.83
2023-02-19T07:02:42.098Z,21.45
2023-02-19T07:05:11.259Z,26.05
2023-02-19T07:07:39.697Z,30.42
2023-02-19T07:10:08.901Z,27.95
2023-02-19T07:12:40.563Z,29.67
2023-02-19T07:15:11.552Z,24.08
2023-02-19T07:17:40.113Z,24.35
2023-02-19T07:20:09.042Z,24.50
2023-02-19T07:22:37.631Z,29.90
2023-02-19T07:25:06.707Z,25.00
2023-02-19T07:27:35.210Z,20.52
2023-02-19T07:30:04.089Z,24.98
2023-02-19T07:32:33.962Z,23.58
2023-02-19T07:35:02.710Z,22.77
2023-02-19T07:37:31.354Z,22.85
2023-02-19T07:39:59.933Z,22.17
2023-02-19T07:42:28.428Z,22.95
2023-02-19T07:44:58.431Z,23.95
2023-02-19T07:47:28.899Z,25.60
2023-02-19T07:49:58.801Z,17.05
2023-02-19T07:52:27.416Z,22.27
2023-02-19T07:54:56.100Z,20.67
2023-02-19T07:57:31.364Z,18.65
2023-02-19T08:00:00.277Z,26.85
2023-02-19T08:02:45.989Z,21.58
2023-02-19T08:05:16.147Z,18.00
2023-02-19T08:07:45.038Z,21.38
2023-02-19T08:10:32.361Z,21.13
2023-02-19T08:13:22.652Z,24.27
2023-02-19T08:15:55.094Z,29.52
2023-02-19T08:18:27.215Z,27.25
2023-02-19T08:20:58.786Z,27.17
2023-02-19T08:23:27.901Z,25.52
2023-02-19T08:26:02.162Z,24.05
2023-02-19T08:28:31.228Z,24.08
2023-02-19T08:31:08.138Z,26.58
2023-02-19T08:33:36.872Z,27.48
2023-02-19T08:36:09.838Z,23.45
2023-02-19T08:38:40.197Z,23.73
2023-02-19T08:41:10.994Z,28.08
2023-02-19T08:43:39.831Z,22.52
2023-02-19T08:46:12.530Z,29.08
2023-02-19T08:48:41.911Z,33.10
2023-02-19T08:51:13.335Z,27.55
2023-02-19T08:53:44.728Z,37.88
2023-02-19T08:56:16.158Z,25.15
2023-02-19T08:58:45.671Z,23.73
2023-02-19T09:01:18.392Z,22.73
2023-02-19T09:03:47.130Z,25.63
2023-02-19T09:06:20.417Z,25.38
2023-02-19T09:08:48.904Z,29.58
2023-02-19T09:11:17.504Z,25.58
2023-02-19T09:13:46.647Z,23.73
2023-02-19T09:16:15.155Z,26.67
2023-02-19T09:18:45.977Z,22.15
2023-02-19T09:21:14.765Z,27.08
2023-02-19T09:23:44.746Z,24.48
2023-02-19T09:26:14.114Z,22.40
2023-02-19T09:28:43.317Z,24.70
2023-02-19T09:31:15.127Z,26.85
2023-02-19T09:33:44.955Z,28.27
2023-02-19T09:36:16.961Z,16.02
2023-02-19T09:38:47.164Z,21.77
2023-02-19T09:41:29.423Z,11.15
2023-02-19T09:43:59.640Z,13.57
2023-02-19T09:46:35.844Z,12.63
2023-02-19T09:49:08.892Z,18.65
2023-02-19T09:51:39.543Z,20.50
2023-02-19T09:54:22.091Z,17.90
2023-02-19T09:56:50.898Z,19.02
2023-02-19T09:59:24.136Z,22.40
2023-02-19T10:01:59.288Z,20.92
2023-02-19T10:04:28.872Z,19.77
2023-02-19T10:07:03.464Z,15.63
2023-02-19T10:09:33.660Z,14.73
2023-02-19T10:12:02.644Z,15.02
2023-02-19T10:14:37.997Z,12.00
2023-02-19T10:17:08.149Z,17.88
2023-02-19T10:19:38.170Z,12.70
2023-02-19T10:22:06.987Z,13.35
2023-02-19T10:24:44.955Z,15.52
2023-02-19T10:27:15.273Z,13.80
2023-02-19T10:29:45.621Z,13.80
2023-02-19T10:32:20.476Z,13.50
2023-02-19T10:34:51.135Z,16.10
2023-02-19T10:37:20.466Z,16.33
2023-02-19T10:39:52.105Z,18.33
2023-02-19T10:42:23.946Z,18.85
2023-02-19T10:44:58.540Z,18.52
2023-02-19T10:47:32.713Z,19.23
2023-02-19T10:50:04.489Z,18.95
2023-02-19T10:52:36.693Z,18.05
2023-02-19T10:55:31.845Z,17.17
2023-02-19T10:58:24.623Z,19.02
2023-02-19T11:01:13.972Z,17.35
2023-02-19T11:03:42.776Z,15.75
2023-02-19T11:06:16.660Z,12.07
2023-02-19T11:08:54.875Z,10.75
2023-02-19T11:11:31.656Z,6.75
2023-02-19T11:14:05.242Z,10.25
2023-02-19T11:16:45.986Z,10.15
2023-02-19T11:21:59.832Z,12.73
2023-02-19T11:24:35.314Z,7.95
2023-02-19T11:27:08.619Z,7.43
2023-02-19T11:29:37.025Z,6.43
2023-02-19T11:32:29.384Z,7.15
2023-02-19T11:35:25.158Z,9.30
2023-02-19T11:37:59.541Z,7.82
2023-02-19T11:40:44.136Z,10.45
2023-02-19T11:43:33.605Z,12.27
2023-02-19T11:46:09.573Z,9.85
2023-02-19T11:48:54.942Z,10.52
2023-02-19T11:51:52.163Z,8.27
2023-02-19T11:54:52.730Z,12.60
2023-02-19T11:57:40.389Z,17.77
2023-02-19T12:00:25.938Z,15.77
2023-02-19T12:03:30.722Z,20.50
2023-02-19T12:06:20.951Z,15.80
2023-02-19T12:09:22.948Z,16.25
2023-02-19T12:12:37.717Z,12.55
2023-02-19T12:15:39.690Z,11.50
2023-02-19T12:19:10.048Z,7.43
2023-02-19T12:22:16.042Z,5.32
2023-02-19T12:25:39.069Z,6.70
2023-02-19T12:28:30.674Z,5.35
2023-02-19T12:31:35.062Z,4.60
2023-02-19T12:34:31.490Z,5.03
2023-02-19T12:37:17.817Z,5.30
2023-02-19T12:39:59.330Z,5.13
2023-02-19T12:42:45.978Z,4.82
2023-02-19T12:45:22.858Z,4.97
2023-02-19T12:48:02.918Z,4.70
2023-02-19T12:50:33.259Z,5.07
2023-02-19T12:53:08.494Z,4.72
2023-02-19T12:55:42.511Z,4.10
2023-02-19T12:58:18.341Z,4.28
2023-02-19T13:00:53.487Z,4.75
2023-02-19T13:03:32.611Z,5.00
2023-02-19T13:06:10.517Z,5.68
2023-02-19T13:09:05.447Z,4.57
2023-02-19T13:11:41.115Z,8.70
2023-02-19T13:14:20.737Z,5.68
2023-02-19T13:16:57.456Z,5.38
2023-02-19T13:19:27.506Z,5.13
2023-02-19T13:22:23.880Z,6.63
2023-02-19T13:24:53.469Z,4.57
2023-02-19T13:27:48.372Z,5.85
2023-02-19T13:30:34.815Z,6.25
2023-02-19T13:33:19.461Z,5.43
2023-02-19T13:36:08.324Z,4.20
2023-02-19T13:38:41.621Z,5.70
2023-02-19T13:41:30.415Z,4.38
2023-02-19T13:44:03.212Z,3.65
2023-02-19T13:46:41.701Z,4.45
2023-02-19T13:49:43.264Z,5.75
2023-02-19T13:52:42.907Z,3.95
2023-02-19T13:55:52.314Z,4.78
2023-02-19T13:59:01.468Z,4.38
2023-02-19T14:02:17.657Z,4.30
2023-02-19T14:04:55.594Z,5.38
2023-02-19T14:08:04.201Z,4.40
2023-02-19T14:11:03.357Z,5.63
2023-02-19T14:14:01.677Z,3.55
2023-02-19T14:17:04.563Z,3.80
2023-02-19T14:19:52.688Z,4.40
2023-02-19T14:23:10.160Z,4.07
2023-02-19T14:25:47.264Z,4.18
2023-02-19T14:28:42.538Z,3.58
2023-02-19T14:31:19.707Z,3.70
2023-02-19T14:33:51.593Z,3.30
2023-02-19T14:36:32.903Z,3.55
2023-02-19T14:39:07.197Z,3.28
2023-02-19T14:41:41.804Z,3.85
2023-02-19T14:44:19.477Z,5.20
2023-02-19T14:47:00.250Z,3.30
2023-02-19T14:49:36.292Z,3.58
2023-02-19T14:52:08.504Z,4.13
2023-02-19T14:54:43.902Z,3.30
2023-02-19T14:57:20.413Z,3.65
2023-02-19T14:59:58.687Z,3.20
2023-02-19T15:02:28.781Z,4.20
2023-02-19T15:04:58.595Z,3.42
2023-02-19T15:07:31.570Z,3.58
2023-02-19T15:10:05.911Z,4.32
2023-02-19T15:12:41.629Z,6.35
2023-02-19T15:15:18.445Z,4.07
2023-02-19T15:17:47.105Z,3.65
2023-02-19T15:20:21.138Z,3.85
2023-02-19T15:22:50.191Z,3.50
2023-02-19T15:25:22.945Z,3.88
2023-02-19T15:27:52.169Z,3.95
2023-02-19T15:30:25.533Z,3.70
2023-02-19T15:32:56.347Z,3.42
2023-02-19T15:37:55.678Z,3.42
2023-02-19T15:40:32.472Z,5.15
2023-02-19T15:43:02.418Z,5.47
2023-02-19T15:45:40.400Z,4.72
2023-02-19T15:48:15.456Z,6.13
2023-02-19T15:50:49.260Z,3.75
2023-02-19T15:53:20.593Z,3.72
2023-02-19T15:56:00.412Z,3.90
2023-02-19T15:58:34.732Z,5.60
2023-02-19T16:01:08.486Z,4.90
2023-02-19T16:03:37.148Z,4.20
2023-02-19T16:06:11.334Z,4.00
2023-02-19T16:08:41.967Z,3.53
2023-02-19T16:11:34.234Z,4.72
2023-02-19T16:14:24.171Z,5.05
2023-02-19T16:16:56.156Z,3.78
2023-02-19T16:19:28.493Z,3.67
2023-02-19T16:21:57.955Z,3.80
2023-02-19T16:24:32.954Z,3.83
2023-02-19T16:27:04.619Z,3.80
2023-02-19T16:29:34.549Z,3.60
2023-02-19T16:32:10.372Z,3.85
2023-02-19T16:34:42.908Z,4.15
2023-02-19T16:37:37.462Z,5.65
2023-02-19T16:40:59.890Z,4.47
2023-02-19T16:43:32.946Z,4.07
2023-02-19T16:46:01.901Z,6.55
2023-02-19T16:48:32.348Z,3.95
2023-02-19T16:51:01.625Z,5.05
2023-02-19T16:53:30.490Z,4.65
2023-02-19T16:55:59.800Z,4.47
2023-02-19T16:58:29.778Z,7.10
2023-02-19T17:00:58.651Z,8.38
2023-02-19T17:03:27.935Z,3.85
2023-02-19T17:05:57.846Z,5.05
2023-02-19T17:08:37.094Z,5.05
2023-02-19T17:11:08.880Z,6.35
2023-02-19T17:13:41.430Z,6.90
2023-02-19T17:16:18.228Z,4.13
2023-02-19T17:18:46.800Z,5.10
2023-02-19T17:21:18.001Z,9.45
2023-02-19T17:23:46.735Z,4.43
2023-02-19T17:26:16.816Z,4.68
2023-02-19T17:28:49.972Z,4.85
2023-02-19T17:31:19.128Z,4.78
2023-02-19T17:33:47.663Z,4.68
2023-02-19T17:36:19.593Z,5.25
2023-02-19T17:38:48.117Z,4.57
2023-02-19T17:41:17.009Z,6.72
2023-02-19T17:43:45.780Z,7.70
2023-02-19T17:46:18.615Z,4.50
2023-02-19T17:48:47.164Z,5.65
2023-02-19T17:51:15.742Z,5.10
2023-02-19T17:53:46.594Z,5.68
2023-02-19T17:56:19.831Z,6.85
2023-02-19T17:58:49.688Z,7.47
2023-02-19T18:01:19.724Z,4.97
2023-02-19T18:03:48.622Z,7.10
2023-02-19T18:06:17.328Z,7.07
2023-02-19T18:08:50.943Z,10.38
2023-02-19T18:11:22.195Z,6.63
2023-02-19T18:13:52.017Z,7.45
2023-02-19T18:16:22.772Z,12.20
2023-02-19T18:21:19.919Z,5.03
2023-02-19T18:23:48.913Z,7.78
2023-02-19T18:26:21.285Z,4.93
2023-02-19T18:28:50.052Z,7.90
2023-02-19T18:31:20.757Z,6.13
2023-02-19T18:36:18.952Z,4.95
2023-02-19T18:38:47.588Z,6.28
2023-02-19T18:41:20.321Z,9.90
2023-02-19T18:43:49.852Z,5.65
2023-02-19T18:46:24.270Z,7.82
2023-02-19T18:48:54.388Z,6.20
2023-02-19T18:51:23.622Z,6.25
2023-02-19T18:53:54.456Z,7.00
2023-02-19T18:56:23.105Z,6.57
2023-02-19T18:58:51.676Z,5.72
2023-02-19T19:01:20.355Z,6.90
2023-02-19T19:03:48.925Z,5.70
2023-02-19T19:06:19.033Z,6.10
2023-02-19T19:08:48.518Z,8.40
2023-02-19T19:11:17.180Z,6.72
2023-02-19T19:13:47.997Z,8.63
2023-02-19T19:16:16.589Z,7.03
2023-02-19T19:18:45.719Z,7.97
2023-02-19T19:21:18.609Z,6.32
2023-02-19T19:23:47.911Z,7.57
2023-02-19T19:26:17.423Z,9.23
2023-02-19T19:28:46.902Z,7.35
2023-02-19T19:31:17.861Z,8.18
2023-02-19T19:33:48.509Z,11.35
2023-02-19T19:36:24.379Z,8.25
2023-02-19T19:38:53.548Z,8.90
2023-02-19T19:41:27.279Z,8.13
2023-02-19T19:43:55.787Z,11.32
2023-02-19T19:46:24.252Z,10.32
2023-02-19T19:48:54.203Z,9.18
2023-02-19T19:51:40.317Z,9.38
2023-02-19T19:54:08.814Z,8.93
2023-02-19T19:56:42.427Z,8.13
2023-02-19T19:59:12.008Z,6.97
2023-02-19T20:01:40.843Z,8.85
2023-02-19T20:04:11.626Z,8.38
2023-02-19T20:06:41.587Z,11.70
2023-02-19T20:09:12.813Z,8.15
2023-02-19T20:11:49.449Z,12.02
2023-02-19T20:14:22.561Z,8.15
2023-02-19T20:16:51.389Z,9.30
2023-02-19T20:19:21.279Z,11.60
2023-02-19T20:21:56.172Z,9.55
2023-02-19T20:24:28.856Z,12.18
2023-02-19T20:27:00.509Z,8.70
2023-02-19T20:29:30.010Z,9.90
2023-02-19T20:32:00.406Z,11.38
2023-02-19T20:34:29.720Z,12.00
2023-02-19T20:37:04.308Z,9.48
2023-02-19T20:39:33.502Z,9.50
2023-02-19T20:42:02.866Z,9.23
2023-02-19T20:44:34.762Z,9.75
2023-02-19T20:47:03.236Z,11.57
2023-02-19T20:49:34.343Z,8.75
2023-02-19T20:52:09.072Z,10.50
2023-02-19T20:54:40.010Z,12.38
2023-02-19T20:59:40.863Z,13.55
2023-02-19T21:02:24.590Z,11.40
2023-02-19T21:04:53.215Z,11.45
2023-02-19T21:07:23.513Z,10.77
2023-02-19T21:09:52.992Z,12.32
2023-02-19T21:12:24.837Z,11.98
2023-02-19T21:14:53.322Z,14.02
2023-02-19T21:17:21.868Z,12.40
2023-02-19T21:19:53.458Z,14.48
2023-02-19T21:22:23.752Z,11.98
2023-02-19T21:24:53.722Z,16.15
2023-02-19T21:27:22.334Z,14.05
2023-02-19T21:29:54.460Z,12.95
2023-02-19T21:32:23.082Z,19.17
2023-02-19T21:34:51.830Z,15.07
2023-02-19T21:37:22.907Z,14.65
2023-02-19T21:39:54.780Z,18.33
2023-02-19T21:42:23.191Z,17.83
2023-02-19T21:44:51.737Z,14.40
2023-02-19T21:47:20.188Z,17.15
2023-02-19T21:49:48.857Z,17.23
2023-02-19T21:52:18.065Z,15.82
2023-02-19T21:54:46.994Z,15.75
2023-02-19T21:57:17.033Z,19.15
2023-02-19T21:59:45.689Z,14.98
2023-02-19T22:02:14.358Z,14.25
2023-02-19T22:04:42.996Z,19.33
2023-02-19T22:07:11.447Z,15.30
2023-02-19T22:09:39.837Z,18.15
2023-02-19T22:12:08.540Z,21.33
2023-02-19T22:14:38.573Z,23.25
2023-02-19T22:17:09.096Z,17.75
2023-02-19T22:19:37.567Z,17.83
2023-02-19T22:22:06.239Z,16.95
2023-02-19T22:24:34.632Z,22.48
2023-02-19T22:27:03.229Z,18.63
2023-02-19T22:29:31.995Z,20.40
2023-02-19T22:32:02.031Z,22.95
2023-02-19T22:34:30.561Z,22.55
2023-02-19T22:36:58.926Z,18.92
2023-02-19T22:39:28.293Z,26.13
2023-02-19T22:41:56.867Z,20.67
2023-02-19T22:44:28.101Z,16.95
2023-02-19T22:46:57.939Z,19.42
2023-02-19T22:49:27.800Z,22.13
2023-02-19T22:51:59.754Z,19.05
2023-02-19T22:54:28.287Z,19.88
2023-02-19T22:56:57.247Z,19.52
2023-02-19T22:59:25.951Z,21.40
2023-02-19T23:01:55.129Z,18.98
2023-02-19T23:04:29.252Z,23.30
2023-02-19T23:06:57.800Z,26.23
2023-02-19T23:09:29.429Z,21.00
2023-02-19T23:12:03.562Z,22.42
2023-02-19T23:14:33.119Z,23.15
2023-02-19T23:17:01.928Z,23.67
2023-02-19T23:19:33.440Z,23.15
2023-02-19T23:22:05.302Z,25.08
2023-02-19T23:24:34.025Z,23.02
2023-02-19T23:27:02.499Z,23.08
2023-02-19T23:29:31.677Z,26.58
2023-02-19T23:32:02.453Z,24.65
2023-02-19T23:34:32.380Z,26.05
2023-02-19T23:37:02.313Z,25.88
2023-02-19T23:39:33.259Z,24.70
2023-02-19T23:42:04.102Z,28.45
2023-02-19T23:44:36.570Z,25.00
2023-02-19T23:47:04.988Z,29.00
2023-02-19T23:49:34.747Z,23.88
2023-02-19T23:52:03.351Z,29.48
2023-02-19T23:54:31.983Z,23.88
2023-02-19T23:57:00.456Z,24.92
2023-02-19T23:59:28.843Z,29.83
